createdAt,value
2019-05-09T00:04:39.225Z,46
2019-05-09T00:19:54.750Z,46.2
2019-05-09T00:34:57.628Z,47
2019-05-09T00:50:25.619Z,47.9
2019-05-09T01:05:41.023Z,48.8
2019-05-09T01:20:56.664Z,50.9
2019-05-09T01:36:14.140Z,51
2019-05-09T01:51:23.606Z,52
2019-05-09T02:06:44.297Z,52.8
2019-05-09T02:21:57.951Z,53.8
2019-05-09T02:37:13.295Z,55.8
2019-05-09T02:52:20.058Z,58.8
2019-05-09T03:07:43.701Z,59.4
2019-05-09T03:22:58.860Z,60.8
2019-05-09T03:38:14.001Z,61.8
2019-05-09T03:53:29.089Z,62
2019-05-09T04:08:39.744Z,63
2019-05-09T04:23:59.341Z,61.5
2019-05-09T04:39:23.753Z,59.8
2019-05-09T04:54:29.612Z,64.7
2019-05-09T05:09:33.212Z,61.4
2019-05-09T05:25:00.244Z,55.3
2019-05-09T05:40:17.569Z,51.3
2019-05-09T05:55:30.776Z,50.2
2019-05-09T06:10:48.562Z,49
2019-05-09T06:25:59.118Z,48.3
2019-05-09T06:41:17.960Z,46.7
2019-05-09T06:56:32.883Z,45.3
2019-05-09T07:11:49.029Z,43
2019-05-09T07:26:52.657Z,40.9
2019-05-09T07:42:19.952Z,37.5
2019-05-09T07:57:49.314Z,36
2019-05-09T08:13:22.069Z,34.8
2019-05-09T08:28:52.378Z,32.6
2019-05-09T08:44:21.415Z,30.6
2019-05-09T08:59:38.592Z,30.3
2019-05-09T09:14:53.879Z,30
2019-05-09T09:30:25.085Z,29.1
2019-05-09T09:45:28.368Z,27.4
2019-05-09T10:00:43.740Z,26
2019-05-09T10:16:00.761Z,25
2019-05-09T10:31:17.918Z,24.8
2019-05-09T10:46:22.204Z,24.4
2019-05-09T11:01:52.251Z,24.8
2019-05-09T11:17:20.960Z,24.8
2019-05-09T11:32:28.183Z,21.6
2019-05-09T11:47:46.966Z,20.5
2019-05-09T12:02:58.502Z,20.7
2019-05-09T12:18:22.871Z,20.7
2019-05-09T12:33:40.541Z,21.3
2019-05-09T12:48:59.555Z,19.9
2019-05-09T13:04:16.394Z,22.9
2019-05-09T13:19:31.270Z,18.2
2019-05-09T13:34:58.202Z,16
2019-05-09T13:50:18.894Z,14.8
2019-05-09T14:05:36.106Z,16.9
2019-05-09T14:20:57.636Z,16.8
2019-05-09T14:36:08.599Z,18.4
2019-05-09T14:51:32.720Z,18.4
2019-05-09T15:06:51.307Z,18.3
2019-05-09T15:22:11.037Z,15.5
2019-05-09T15:37:14.689Z,13.1
2019-05-09T15:52:46.974Z,13.3
2019-05-09T16:08:13.014Z,13.4
2019-05-09T16:23:33.940Z,12.9
2019-05-09T16:38:55.322Z,12.2
2019-05-09T16:54:18.406Z,15.1
2019-05-09T17:09:28.044Z,16.4
2019-05-09T17:24:57.644Z,16.2
2019-05-09T17:40:19.423Z,16.5
2019-05-09T17:55:38.520Z,17.6
2019-05-09T18:10:54.898Z,19.9
2019-05-09T18:26:01.382Z,22.9
2019-05-09T18:41:31.218Z,25
2019-05-09T18:56:48.362Z,27.9
2019-05-09T19:12:05.644Z,28.6
2019-05-09T19:27:22.569Z,31.5
2019-05-09T19:42:33.172Z,31.3
2019-05-09T19:57:56.023Z,31.3
2019-05-09T20:13:12.696Z,32.1
2019-05-09T20:28:29.241Z,34.4
2019-05-09T20:43:32.234Z,36.1
2019-05-09T20:59:01.922Z,35.9
2019-05-09T21:14:18.216Z,37.5
2019-05-09T21:29:34.420Z,38.1
2019-05-09T21:44:50.501Z,38.8
2019-05-09T22:00:00.006Z,39.4
2019-05-09T22:15:22.690Z,41.1
2019-05-09T22:30:38.668Z,42.2
2019-05-09T22:45:54.574Z,43.5
2019-05-09T23:00:56.644Z,44.4
2019-05-09T23:16:26.055Z,44.8
2019-05-09T23:31:41.841Z,45.3
2019-05-09T23:46:57.967Z,45.6
